sensor_id;sensor_type;location;lat;lon;timestamp;P1;durP1;ratioP1;P2;durP2;ratioP2
52618;SDS011;38513;53.234;6.568;2023-08-21T00:00:39;14.00;;;4.15;;
52618;SDS011;38513;53.234;6.568;2023-08-21T00:03:05;10.10;;;3.65;;
52618;SDS011;38513;53.234;6.568;2023-08-21T00:05:31;9.75;;;3.33;;
52618;SDS011;38513;53.234;6.568;2023-08-21T00:07:58;11.30;;;3.78;;
52618;SDS011;38513;53.234;6.568;2023-08-21T00:10:24;11.70;;;3.50;;
52618;SDS011;38513;53.234;6.568;2023-08-21T00:12:50;10.55;;;3.83;;
52618;SDS011;38513;53.234;6.568;2023-08-21T00:15:16;10.10;;;4.03;;
52618;SDS011;38513;53.234;6.568;2023-08-21T00:17:42;13.88;;;4.35;;
52618;SDS011;38513;53.234;6.568;2023-08-21T00:20:09;12.73;;;4.13;;
52618;SDS011;38513;53.234;6.568;2023-08-21T00:22:35;11.75;;;3.88;;
52618;SDS011;38513;53.234;6.568;2023-08-21T00:25:02;14.03;;;4.10;;
52618;SDS011;38513;53.234;6.568;2023-08-21T00:27:29;12.02;;;4.20;;
52618;SDS011;38513;53.234;6.568;2023-08-21T00:29:55;12.65;;;4.10;;
52618;SDS011;38513;53.234;6.568;2023-08-21T00:32:21;13.43;;;4.93;;
52618;SDS011;38513;53.234;6.568;2023-08-21T00:34:50;12.87;;;4.60;;
52618;SDS011;38513;53.234;6.568;2023-08-21T00:37:16;10.77;;;4.40;;
52618;SDS011;38513;53.234;6.568;2023-08-21T00:39:42;12.10;;;4.28;;
52618;SDS011;38513;53.234;6.568;2023-08-21T00:42:08;12.37;;;4.50;;
52618;SDS011;38513;53.234;6.568;2023-08-21T00:44:34;9.98;;;4.00;;
52618;SDS011;38513;53.234;6.568;2023-08-21T00:47:01;14.48;;;4.32;;
52618;SDS011;38513;53.234;6.568;2023-08-21T00:49:27;12.27;;;4.57;;
52618;SDS011;38513;53.234;6.568;2023-08-21T00:51:53;13.50;;;4.93;;
52618;SDS011;38513;53.234;6.568;2023-08-21T00:54:22;9.60;;;3.95;;
52618;SDS011;38513;53.234;6.568;2023-08-21T00:56:48;13.43;;;5.22;;
52618;SDS011;38513;53.234;6.568;2023-08-21T00:59:17;11.67;;;4.80;;
52618;SDS011;38513;53.234;6.568;2023-08-21T01:01:44;13.23;;;4.57;;
52618;SDS011;38513;53.234;6.568;2023-08-21T01:04:12;13.30;;;5.07;;
52618;SDS011;38513;53.234;6.568;2023-08-21T01:06:39;11.23;;;4.70;;
52618;SDS011;38513;53.234;6.568;2023-08-21T01:14:17;11.60;;;4.85;;
52618;SDS011;38513;53.234;6.568;2023-08-21T01:16:47;12.40;;;4.90;;
52618;SDS011;38513;53.234;6.568;2023-08-21T01:21:59;16.30;;;5.35;;
52618;SDS011;38513;53.234;6.568;2023-08-21T01:24:26;11.88;;;5.28;;
52618;SDS011;38513;53.234;6.568;2023-08-21T01:26:52;12.20;;;4.60;;
52618;SDS011;38513;53.234;6.568;2023-08-21T01:29:18;13.55;;;5.28;;
52618;SDS011;38513;53.234;6.568;2023-08-21T01:31:46;14.05;;;4.82;;
52618;SDS011;38513;53.234;6.568;2023-08-21T01:34:17;14.13;;;4.93;;
52618;SDS011;38513;53.234;6.568;2023-08-21T01:36:45;11.88;;;4.95;;
52618;SDS011;38513;53.234;6.568;2023-08-21T01:39:11;14.43;;;5.13;;
52618;SDS011;38513;53.234;6.568;2023-08-21T01:41:38;13.10;;;4.53;;
52618;SDS011;38513;53.234;6.568;2023-08-21T01:44:04;11.13;;;4.55;;
52618;SDS011;38513;53.234;6.568;2023-08-21T01:46:33;12.90;;;4.78;;
52618;SDS011;38513;53.234;6.568;2023-08-21T01:48:59;14.48;;;5.40;;
52618;SDS011;38513;53.234;6.568;2023-08-21T01:51:25;14.88;;;5.30;;
52618;SDS011;38513;53.234;6.568;2023-08-21T01:53:59;14.70;;;4.88;;
52618;SDS011;38513;53.234;6.568;2023-08-21T01:56:27;13.98;;;5.18;;
52618;SDS011;38513;53.234;6.568;2023-08-21T01:58:53;12.43;;;5.33;;
52618;SDS011;38513;53.234;6.568;2023-08-21T02:01:20;11.20;;;4.90;;
52618;SDS011;38513;53.234;6.568;2023-08-21T02:03:46;18.40;;;5.78;;
52618;SDS011;38513;53.234;6.568;2023-08-21T02:06:12;12.35;;;5.57;;
52618;SDS011;38513;53.234;6.568;2023-08-21T02:08:38;10.70;;;4.28;;
52618;SDS011;38513;53.234;6.568;2023-08-21T02:11:04;16.25;;;5.60;;
52618;SDS011;38513;53.234;6.568;2023-08-21T02:13:30;13.13;;;5.63;;
52618;SDS011;38513;53.234;6.568;2023-08-21T02:15:58;13.50;;;5.53;;
52618;SDS011;38513;53.234;6.568;2023-08-21T02:18:24;14.52;;;5.55;;
52618;SDS011;38513;53.234;6.568;2023-08-21T02:20:50;12.35;;;5.28;;
52618;SDS011;38513;53.234;6.568;2023-08-21T02:23:16;12.03;;;5.10;;
52618;SDS011;38513;53.234;6.568;2023-08-21T02:25:43;11.55;;;5.05;;
52618;SDS011;38513;53.234;6.568;2023-08-21T02:28:09;11.20;;;5.00;;
52618;SDS011;38513;53.234;6.568;2023-08-21T02:30:36;12.00;;;4.97;;
52618;SDS011;38513;53.234;6.568;2023-08-21T02:33:05;12.52;;;5.68;;
52618;SDS011;38513;53.234;6.568;2023-08-21T02:35:31;14.70;;;5.70;;
52618;SDS011;38513;53.234;6.568;2023-08-21T02:38:01;13.13;;;5.15;;
52618;SDS011;38513;53.234;6.568;2023-08-21T02:40:27;13.77;;;4.95;;
52618;SDS011;38513;53.234;6.568;2023-08-21T02:42:53;12.18;;;4.88;;
52618;SDS011;38513;53.234;6.568;2023-08-21T02:45:20;13.00;;;5.45;;
52618;SDS011;38513;53.234;6.568;2023-08-21T02:47:46;14.32;;;5.25;;
52618;SDS011;38513;53.234;6.568;2023-08-21T02:50:12;12.88;;;5.72;;
52618;SDS011;38513;53.234;6.568;2023-08-21T02:52:38;15.07;;;5.95;;
52618;SDS011;38513;53.234;6.568;2023-08-21T02:55:05;12.90;;;5.10;;
52618;SDS011;38513;53.234;6.568;2023-08-21T02:57:31;12.93;;;5.38;;
52618;SDS011;38513;53.234;6.568;2023-08-21T02:59:58;13.50;;;5.00;;
52618;SDS011;38513;53.234;6.568;2023-08-21T03:02:24;13.10;;;5.00;;
52618;SDS011;38513;53.234;6.568;2023-08-21T03:04:53;11.45;;;5.05;;
52618;SDS011;38513;53.234;6.568;2023-08-21T03:07:19;12.17;;;5.00;;
52618;SDS011;38513;53.234;6.568;2023-08-21T03:09:46;11.95;;;4.93;;
52618;SDS011;38513;53.234;6.568;2023-08-21T03:12:12;12.97;;;5.30;;
52618;SDS011;38513;53.234;6.568;2023-08-21T03:14:38;11.38;;;5.28;;
52618;SDS011;38513;53.234;6.568;2023-08-21T03:17:04;12.93;;;5.50;;
52618;SDS011;38513;53.234;6.568;2023-08-21T03:19:31;14.10;;;5.60;;
52618;SDS011;38513;53.234;6.568;2023-08-21T03:21:57;13.68;;;5.55;;
52618;SDS011;38513;53.234;6.568;2023-08-21T03:24:23;14.50;;;6.05;;
52618;SDS011;38513;53.234;6.568;2023-08-21T03:26:49;14.77;;;5.20;;
52618;SDS011;38513;53.234;6.568;2023-08-21T03:29:15;11.65;;;4.88;;
52618;SDS011;38513;53.234;6.568;2023-08-21T03:31:42;13.80;;;5.30;;
52618;SDS011;38513;53.234;6.568;2023-08-21T03:34:08;13.75;;;5.43;;
52618;SDS011;38513;53.234;6.568;2023-08-21T03:36:34;12.85;;;4.93;;
52618;SDS011;38513;53.234;6.568;2023-08-21T03:39:02;12.15;;;5.32;;
52618;SDS011;38513;53.234;6.568;2023-08-21T03:41:34;11.32;;;5.25;;
52618;SDS011;38513;53.234;6.568;2023-08-21T03:44:01;12.55;;;5.20;;
52618;SDS011;38513;53.234;6.568;2023-08-21T03:46:27;12.30;;;5.23;;
52618;SDS011;38513;53.234;6.568;2023-08-21T03:48:53;12.32;;;5.10;;
52618;SDS011;38513;53.234;6.568;2023-08-21T03:51:19;15.15;;;5.70;;
52618;SDS011;38513;53.234;6.568;2023-08-21T03:53:45;14.02;;;5.47;;
52618;SDS011;38513;53.234;6.568;2023-08-21T03:56:11;12.48;;;4.80;;
52618;SDS011;38513;53.234;6.568;2023-08-21T03:58:40;11.30;;;5.18;;
52618;SDS011;38513;53.234;6.568;2023-08-21T04:01:06;11.43;;;5.47;;
52618;SDS011;38513;53.234;6.568;2023-08-21T04:03:33;14.85;;;5.43;;
52618;SDS011;38513;53.234;6.568;2023-08-21T04:05:59;11.80;;;4.70;;
52618;SDS011;38513;53.234;6.568;2023-08-21T04:08:27;12.10;;;4.93;;
52618;SDS011;38513;53.234;6.568;2023-08-21T04:10:56;11.77;;;4.70;;
52618;SDS011;38513;53.234;6.568;2023-08-21T04:13:25;12.85;;;5.28;;
52618;SDS011;38513;53.234;6.568;2023-08-21T04:15:52;15.23;;;5.18;;
52618;SDS011;38513;53.234;6.568;2023-08-21T04:18:19;11.68;;;4.85;;
52618;SDS011;38513;53.234;6.568;2023-08-21T04:20:47;11.80;;;5.20;;
52618;SDS011;38513;53.234;6.568;2023-08-21T04:23:13;14.75;;;5.80;;
52618;SDS011;38513;53.234;6.568;2023-08-21T04:25:44;14.80;;;7.40;;
52618;SDS011;38513;53.234;6.568;2023-08-21T04:28:13;12.35;;;5.80;;
52618;SDS011;38513;53.234;6.568;2023-08-21T04:30:40;13.03;;;5.40;;
52618;SDS011;38513;53.234;6.568;2023-08-21T04:33:07;11.32;;;5.22;;
52618;SDS011;38513;53.234;6.568;2023-08-21T04:35:37;13.35;;;5.30;;
52618;SDS011;38513;53.234;6.568;2023-08-21T04:38:06;13.15;;;5.82;;
52618;SDS011;38513;53.234;6.568;2023-08-21T04:40:35;14.27;;;5.60;;
52618;SDS011;38513;53.234;6.568;2023-08-21T04:43:03;16.07;;;6.70;;
52618;SDS011;38513;53.234;6.568;2023-08-21T04:45:29;15.45;;;6.05;;
52618;SDS011;38513;53.234;6.568;2023-08-21T04:47:55;15.20;;;5.75;;
52618;SDS011;38513;53.234;6.568;2023-08-21T04:50:22;14.13;;;6.15;;
52618;SDS011;38513;53.234;6.568;2023-08-21T04:52:48;12.25;;;5.88;;
52618;SDS011;38513;53.234;6.568;2023-08-21T04:55:15;12.65;;;5.85;;
52618;SDS011;38513;53.234;6.568;2023-08-21T04:57:41;14.32;;;5.55;;
52618;SDS011;38513;53.234;6.568;2023-08-21T05:00:08;13.35;;;6.30;;
52618;SDS011;38513;53.234;6.568;2023-08-21T05:02:34;14.32;;;6.90;;
52618;SDS011;38513;53.234;6.568;2023-08-21T05:05:01;13.88;;;5.97;;
52618;SDS011;38513;53.234;6.568;2023-08-21T05:07:27;13.33;;;5.60;;
52618;SDS011;38513;53.234;6.568;2023-08-21T05:09:53;16.30;;;6.15;;
52618;SDS011;38513;53.234;6.568;2023-08-21T05:12:19;15.38;;;5.88;;
52618;SDS011;38513;53.234;6.568;2023-08-21T05:14:48;11.10;;;5.70;;
52618;SDS011;38513;53.234;6.568;2023-08-21T05:17:14;14.52;;;5.15;;
52618;SDS011;38513;53.234;6.568;2023-08-21T05:19:42;13.57;;;5.55;;
52618;SDS011;38513;53.234;6.568;2023-08-21T05:22:12;13.15;;;5.10;;
52618;SDS011;38513;53.234;6.568;2023-08-21T05:24:38;13.23;;;5.43;;
52618;SDS011;38513;53.234;6.568;2023-08-21T05:27:14;15.05;;;5.43;;
52618;SDS011;38513;53.234;6.568;2023-08-21T05:29:43;14.07;;;5.13;;
52618;SDS011;38513;53.234;6.568;2023-08-21T05:32:09;13.80;;;5.75;;
52618;SDS011;38513;53.234;6.568;2023-08-21T05:34:35;12.25;;;5.00;;
52618;SDS011;38513;53.234;6.568;2023-08-21T05:37:02;13.75;;;4.93;;
52618;SDS011;38513;53.234;6.568;2023-08-21T05:39:31;11.95;;;4.68;;
52618;SDS011;38513;53.234;6.568;2023-08-21T05:41:57;13.02;;;5.10;;
52618;SDS011;38513;53.234;6.568;2023-08-21T05:44:23;13.23;;;5.07;;
52618;SDS011;38513;53.234;6.568;2023-08-21T05:46:50;15.20;;;5.10;;
52618;SDS011;38513;53.234;6.568;2023-08-21T05:49:16;15.90;;;5.05;;
52618;SDS011;38513;53.234;6.568;2023-08-21T05:51:42;14.13;;;4.32;;
52618;SDS011;38513;53.234;6.568;2023-08-21T05:54:08;15.10;;;4.50;;
52618;SDS011;38513;53.234;6.568;2023-08-21T05:56:34;12.77;;;4.65;;
52618;SDS011;38513;53.234;6.568;2023-08-21T05:59:03;13.80;;;4.28;;
52618;SDS011;38513;53.234;6.568;2023-08-21T06:01:30;12.43;;;4.03;;
52618;SDS011;38513;53.234;6.568;2023-08-21T06:03:57;14.00;;;3.88;;
52618;SDS011;38513;53.234;6.568;2023-08-21T06:06:23;13.63;;;4.63;;
52618;SDS011;38513;53.234;6.568;2023-08-21T06:08:49;15.80;;;4.13;;
52618;SDS011;38513;53.234;6.568;2023-08-21T06:11:15;11.98;;;3.88;;
52618;SDS011;38513;53.234;6.568;2023-08-21T06:13:41;12.23;;;3.30;;
52618;SDS011;38513;53.234;6.568;2023-08-21T06:16:08;9.57;;;3.28;;
52618;SDS011;38513;53.234;6.568;2023-08-21T06:18:34;11.20;;;3.22;;
52618;SDS011;38513;53.234;6.568;2023-08-21T06:21:00;10.73;;;2.95;;
52618;SDS011;38513;53.234;6.568;2023-08-21T06:23:26;9.65;;;2.78;;
52618;SDS011;38513;53.234;6.568;2023-08-21T06:25:52;11.10;;;2.85;;
52618;SDS011;38513;53.234;6.568;2023-08-21T06:28:18;9.88;;;3.15;;
52618;SDS011;38513;53.234;6.568;2023-08-21T06:30:45;9.52;;;3.00;;
52618;SDS011;38513;53.234;6.568;2023-08-21T06:33:13;9.30;;;2.60;;
52618;SDS011;38513;53.234;6.568;2023-08-21T06:35:40;6.93;;;2.38;;
52618;SDS011;38513;53.234;6.568;2023-08-21T06:38:06;10.57;;;2.70;;
52618;SDS011;38513;53.234;6.568;2023-08-21T06:40:32;11.40;;;2.30;;
52618;SDS011;38513;53.234;6.568;2023-08-21T06:42:58;10.82;;;2.75;;
52618;SDS011;38513;53.234;6.568;2023-08-21T06:45:24;9.75;;;2.45;;
52618;SDS011;38513;53.234;6.568;2023-08-21T06:47:53;10.35;;;2.60;;
52618;SDS011;38513;53.234;6.568;2023-08-21T06:50:20;8.38;;;2.08;;
52618;SDS011;38513;53.234;6.568;2023-08-21T06:52:46;9.80;;;2.45;;
52618;SDS011;38513;53.234;6.568;2023-08-21T06:55:20;10.52;;;2.35;;
52618;SDS011;38513;53.234;6.568;2023-08-21T06:57:46;11.45;;;3.83;;
52618;SDS011;38513;53.234;6.568;2023-08-21T07:00:12;11.90;;;5.47;;
52618;SDS011;38513;53.234;6.568;2023-08-21T07:02:39;9.77;;;3.08;;
52618;SDS011;38513;53.234;6.568;2023-08-21T07:05:05;10.10;;;2.15;;
52618;SDS011;38513;53.234;6.568;2023-08-21T07:07:39;7.07;;;1.80;;
52618;SDS011;38513;53.234;6.568;2023-08-21T07:10:06;8.10;;;1.92;;
52618;SDS011;38513;53.234;6.568;2023-08-21T07:12:33;6.78;;;1.50;;
52618;SDS011;38513;53.234;6.568;2023-08-21T07:14:59;5.35;;;1.20;;
52618;SDS011;38513;53.234;6.568;2023-08-21T07:17:28;6.95;;;1.52;;
52618;SDS011;38513;53.234;6.568;2023-08-21T07:19:54;7.80;;;1.70;;
52618;SDS011;38513;53.234;6.568;2023-08-21T07:22:21;6.93;;;1.40;;
52618;SDS011;38513;53.234;6.568;2023-08-21T07:24:47;5.60;;;1.70;;
52618;SDS011;38513;53.234;6.568;2023-08-21T07:27:16;7.63;;;1.60;;
52618;SDS011;38513;53.234;6.568;2023-08-21T07:29:42;8.23;;;1.63;;
52618;SDS011;38513;53.234;6.568;2023-08-21T07:32:08;5.75;;;1.25;;
52618;SDS011;38513;53.234;6.568;2023-08-21T07:34:34;6.00;;;1.40;;
52618;SDS011;38513;53.234;6.568;2023-08-21T07:37:04;6.60;;;1.55;;
52618;SDS011;38513;53.234;6.568;2023-08-21T07:39:30;7.30;;;1.63;;
52618;SDS011;38513;53.234;6.568;2023-08-21T07:41:58;7.53;;;1.42;;
52618;SDS011;38513;53.234;6.568;2023-08-21T07:44:26;8.38;;;1.60;;
52618;SDS011;38513;53.234;6.568;2023-08-21T07:46:54;6.95;;;1.70;;
52618;SDS011;38513;53.234;6.568;2023-08-21T07:49:20;7.53;;;1.60;;
52618;SDS011;38513;53.234;6.568;2023-08-21T07:51:47;7.75;;;1.50;;
52618;SDS011;38513;53.234;6.568;2023-08-21T07:54:13;7.20;;;1.58;;
52618;SDS011;38513;53.234;6.568;2023-08-21T07:56:42;5.77;;;1.63;;
52618;SDS011;38513;53.234;6.568;2023-08-21T07:59:08;6.97;;;1.75;;
52618;SDS011;38513;53.234;6.568;2023-08-21T08:01:35;6.60;;;1.73;;
52618;SDS011;38513;53.234;6.568;2023-08-21T08:04:01;6.35;;;1.65;;
52618;SDS011;38513;53.234;6.568;2023-08-21T08:06:27;7.85;;;1.85;;
52618;SDS011;38513;53.234;6.568;2023-08-21T08:08:53;7.57;;;1.70;;
52618;SDS011;38513;53.234;6.568;2023-08-21T08:11:19;7.87;;;1.80;;
52618;SDS011;38513;53.234;6.568;2023-08-21T08:13:46;6.80;;;1.65;;
52618;SDS011;38513;53.234;6.568;2023-08-21T08:16:12;6.03;;;1.60;;
52618;SDS011;38513;53.234;6.568;2023-08-21T08:18:38;6.85;;;1.88;;
52618;SDS011;38513;53.234;6.568;2023-08-21T08:21:04;6.10;;;1.40;;
52618;SDS011;38513;53.234;6.568;2023-08-21T08:23:30;6.45;;;1.48;;
52618;SDS011;38513;53.234;6.568;2023-08-21T08:25:56;7.85;;;3.50;;
52618;SDS011;38513;53.234;6.568;2023-08-21T08:28:23;7.50;;;2.95;;
52618;SDS011;38513;53.234;6.568;2023-08-21T08:30:50;5.90;;;1.60;;
52618;SDS011;38513;53.234;6.568;2023-08-21T08:33:16;4.95;;;1.55;;
52618;SDS011;38513;53.234;6.568;2023-08-21T08:35:42;5.53;;;1.27;;
52618;SDS011;38513;53.234;6.568;2023-08-21T08:38:11;6.00;;;1.60;;
52618;SDS011;38513;53.234;6.568;2023-08-21T08:40:42;4.93;;;1.53;;
52618;SDS011;38513;53.234;6.568;2023-08-21T08:43:08;5.32;;;1.45;;
52618;SDS011;38513;53.234;6.568;2023-08-21T08:45:35;5.35;;;1.42;;
52618;SDS011;38513;53.234;6.568;2023-08-21T08:48:04;5.50;;;1.50;;
52618;SDS011;38513;53.234;6.568;2023-08-21T08:50:31;6.40;;;1.80;;
52618;SDS011;38513;53.234;6.568;2023-08-21T08:52:58;5.50;;;1.42;;
52618;SDS011;38513;53.234;6.568;2023-08-21T08:55:24;6.07;;;1.30;;
52618;SDS011;38513;53.234;6.568;2023-08-21T08:57:51;6.35;;;1.40;;
52618;SDS011;38513;53.234;6.568;2023-08-21T09:00:20;5.17;;;1.40;;
52618;SDS011;38513;53.234;6.568;2023-08-21T09:02:47;5.80;;;1.55;;
52618;SDS011;38513;53.234;6.568;2023-08-21T09:05:14;6.45;;;1.60;;
52618;SDS011;38513;53.234;6.568;2023-08-21T09:07:41;5.53;;;1.45;;
52618;SDS011;38513;53.234;6.568;2023-08-21T09:10:14;5.35;;;1.38;;
52618;SDS011;38513;53.234;6.568;2023-08-21T09:12:40;4.25;;;1.10;;
52618;SDS011;38513;53.234;6.568;2023-08-21T09:15:07;5.78;;;1.63;;
52618;SDS011;38513;53.234;6.568;2023-08-21T09:17:33;5.30;;;1.63;;
52618;SDS011;38513;53.234;6.568;2023-08-21T09:20:06;5.10;;;1.33;;
52618;SDS011;38513;53.234;6.568;2023-08-21T09:22:35;6.05;;;1.42;;
52618;SDS011;38513;53.234;6.568;2023-08-21T09:25:03;5.35;;;1.38;;
52618;SDS011;38513;53.234;6.568;2023-08-21T09:27:34;5.70;;;1.30;;
52618;SDS011;38513;53.234;6.568;2023-08-21T09:30:01;4.85;;;1.52;;
52618;SDS011;38513;53.234;6.568;2023-08-21T09:32:29;5.05;;;1.42;;
52618;SDS011;38513;53.234;6.568;2023-08-21T09:34:56;5.93;;;2.03;;
52618;SDS011;38513;53.234;6.568;2023-08-21T09:37:27;4.18;;;1.25;;
52618;SDS011;38513;53.234;6.568;2023-08-21T09:39:54;5.57;;;1.50;;
52618;SDS011;38513;53.234;6.568;2023-08-21T09:42:26;6.70;;;1.58;;
52618;SDS011;38513;53.234;6.568;2023-08-21T09:44:52;4.68;;;1.10;;
52618;SDS011;38513;53.234;6.568;2023-08-21T09:47:18;5.22;;;1.35;;
52618;SDS011;38513;53.234;6.568;2023-08-21T09:49:45;5.22;;;1.58;;
52618;SDS011;38513;53.234;6.568;2023-08-21T09:52:15;6.78;;;1.50;;
52618;SDS011;38513;53.234;6.568;2023-08-21T09:54:41;5.60;;;1.25;;
52618;SDS011;38513;53.234;6.568;2023-08-21T09:57:08;5.13;;;1.40;;
52618;SDS011;38513;53.234;6.568;2023-08-21T09:59:35;5.32;;;1.48;;
52618;SDS011;38513;53.234;6.568;2023-08-21T10:02:05;5.13;;;1.48;;
52618;SDS011;38513;53.234;6.568;2023-08-21T10:04:31;4.75;;;1.35;;
52618;SDS011;38513;53.234;6.568;2023-08-21T10:06:58;5.05;;;1.60;;
52618;SDS011;38513;53.234;6.568;2023-08-21T10:09:24;7.18;;;1.70;;
52618;SDS011;38513;53.234;6.568;2023-08-21T10:11:52;4.68;;;1.55;;
52618;SDS011;38513;53.234;6.568;2023-08-21T10:14:19;6.85;;;1.83;;
52618;SDS011;38513;53.234;6.568;2023-08-21T10:16:46;5.82;;;1.63;;
52618;SDS011;38513;53.234;6.568;2023-08-21T10:19:14;5.37;;;1.57;;
52618;SDS011;38513;53.234;6.568;2023-08-21T10:21:40;4.90;;;1.50;;
52618;SDS011;38513;53.234;6.568;2023-08-21T10:24:06;5.20;;;1.42;;
52618;SDS011;38513;53.234;6.568;2023-08-21T10:26:34;5.22;;;1.30;;
52618;SDS011;38513;53.234;6.568;2023-08-21T10:29:03;5.57;;;1.42;;
52618;SDS011;38513;53.234;6.568;2023-08-21T10:34:02;5.18;;;1.38;;
52618;SDS011;38513;53.234;6.568;2023-08-21T10:42:15;8.80;;;1.70;;
52618;SDS011;38513;53.234;6.568;2023-08-21T10:49:56;5.72;;;1.58;;
52618;SDS011;38513;53.234;6.568;2023-08-21T10:52:23;5.68;;;1.60;;
52618;SDS011;38513;53.234;6.568;2023-08-21T10:54:50;5.18;;;1.67;;
52618;SDS011;38513;53.234;6.568;2023-08-21T10:57:17;7.97;;;3.60;;
52618;SDS011;38513;53.234;6.568;2023-08-21T10:59:55;6.70;;;2.55;;
52618;SDS011;38513;53.234;6.568;2023-08-21T11:02:22;6.32;;;1.90;;
52618;SDS011;38513;53.234;6.568;2023-08-21T11:04:49;5.80;;;1.58;;
52618;SDS011;38513;53.234;6.568;2023-08-21T11:07:15;6.28;;;1.90;;
52618;SDS011;38513;53.234;6.568;2023-08-21T11:09:42;5.43;;;1.90;;
52618;SDS011;38513;53.234;6.568;2023-08-21T11:12:10;5.22;;;1.60;;
52618;SDS011;38513;53.234;6.568;2023-08-21T11:14:37;6.50;;;1.67;;
52618;SDS011;38513;53.234;6.568;2023-08-21T11:17:04;4.47;;;1.52;;
52618;SDS011;38513;53.234;6.568;2023-08-21T11:19:30;5.73;;;1.70;;
52618;SDS011;38513;53.234;6.568;2023-08-21T11:21:57;5.50;;;1.50;;
52618;SDS011;38513;53.234;6.568;2023-08-21T11:27:04;5.70;;;1.58;;
52618;SDS011;38513;53.234;6.568;2023-08-21T11:29:40;6.80;;;1.70;;
52618;SDS011;38513;53.234;6.568;2023-08-21T11:32:12;5.93;;;1.90;;
52618;SDS011;38513;53.234;6.568;2023-08-21T11:34:52;6.38;;;1.40;;
52618;SDS011;38513;53.234;6.568;2023-08-21T11:37:19;5.85;;;1.73;;
52618;SDS011;38513;53.234;6.568;2023-08-21T11:39:47;5.43;;;1.52;;
52618;SDS011;38513;53.234;6.568;2023-08-21T11:42:16;6.07;;;1.90;;
52618;SDS011;38513;53.234;6.568;2023-08-21T11:44:52;5.88;;;1.70;;
52618;SDS011;38513;53.234;6.568;2023-08-21T11:47:19;8.02;;;1.67;;
52618;SDS011;38513;53.234;6.568;2023-08-21T11:49:46;5.72;;;2.00;;
52618;SDS011;38513;53.234;6.568;2023-08-21T11:52:14;6.68;;;1.83;;
52618;SDS011;38513;53.234;6.568;2023-08-21T11:54:43;5.03;;;1.52;;
52618;SDS011;38513;53.234;6.568;2023-08-21T11:57:13;7.60;;;1.83;;
52618;SDS011;38513;53.234;6.568;2023-08-21T11:59:42;6.85;;;1.60;;
52618;SDS011;38513;53.234;6.568;2023-08-21T12:02:16;6.53;;;1.80;;
52618;SDS011;38513;53.234;6.568;2023-08-21T12:04:43;5.63;;;1.40;;
52618;SDS011;38513;53.234;6.568;2023-08-21T12:07:12;8.00;;;1.77;;
52618;SDS011;38513;53.234;6.568;2023-08-21T12:09:38;6.18;;;1.67;;
52618;SDS011;38513;53.234;6.568;2023-08-21T12:12:05;6.47;;;1.92;;
52618;SDS011;38513;53.234;6.568;2023-08-21T12:14:31;6.47;;;1.90;;
52618;SDS011;38513;53.234;6.568;2023-08-21T12:17:00;5.70;;;1.63;;
52618;SDS011;38513;53.234;6.568;2023-08-21T12:19:26;5.38;;;1.50;;
52618;SDS011;38513;53.234;6.568;2023-08-21T12:21:56;8.32;;;1.70;;
52618;SDS011;38513;53.234;6.568;2023-08-21T12:24:24;7.63;;;2.83;;
52618;SDS011;38513;53.234;6.568;2023-08-21T12:26:51;5.90;;;1.70;;
52618;SDS011;38513;53.234;6.568;2023-08-21T12:29:17;6.28;;;1.70;;
52618;SDS011;38513;53.234;6.568;2023-08-21T12:31:43;7.10;;;1.90;;
52618;SDS011;38513;53.234;6.568;2023-08-21T12:34:13;7.18;;;1.80;;
52618;SDS011;38513;53.234;6.568;2023-08-21T12:36:39;6.35;;;1.85;;
52618;SDS011;38513;53.234;6.568;2023-08-21T12:39:05;6.47;;;1.88;;
52618;SDS011;38513;53.234;6.568;2023-08-21T12:41:32;6.88;;;2.00;;
52618;SDS011;38513;53.234;6.568;2023-08-21T12:43:59;6.18;;;1.70;;
52618;SDS011;38513;53.234;6.568;2023-08-21T12:46:25;5.72;;;1.67;;
52618;SDS011;38513;53.234;6.568;2023-08-21T12:48:53;6.27;;;1.90;;
52618;SDS011;38513;53.234;6.568;2023-08-21T12:51:19;7.78;;;1.90;;
52618;SDS011;38513;53.234;6.568;2023-08-21T12:53:45;5.25;;;1.45;;
52618;SDS011;38513;53.234;6.568;2023-08-21T12:56:11;4.18;;;1.30;;
52618;SDS011;38513;53.234;6.568;2023-08-21T12:58:38;6.55;;;1.77;;
52618;SDS011;38513;53.234;6.568;2023-08-21T13:01:04;6.25;;;1.85;;
52618;SDS011;38513;53.234;6.568;2023-08-21T13:03:30;7.22;;;1.67;;
52618;SDS011;38513;53.234;6.568;2023-08-21T13:05:56;6.07;;;1.60;;
52618;SDS011;38513;53.234;6.568;2023-08-21T13:08:23;7.35;;;1.50;;
52618;SDS011;38513;53.234;6.568;2023-08-21T13:10:49;6.67;;;1.60;;
52618;SDS011;38513;53.234;6.568;2023-08-21T13:13:18;6.40;;;1.80;;
52618;SDS011;38513;53.234;6.568;2023-08-21T13:15:44;6.35;;;1.40;;
52618;SDS011;38513;53.234;6.568;2023-08-21T13:18:11;5.95;;;1.40;;
52618;SDS011;38513;53.234;6.568;2023-08-21T13:20:40;5.72;;;1.75;;
52618;SDS011;38513;53.234;6.568;2023-08-21T13:23:06;8.63;;;3.63;;
52618;SDS011;38513;53.234;6.568;2023-08-21T13:25:33;5.18;;;1.63;;
52618;SDS011;38513;53.234;6.568;2023-08-21T13:28:00;6.43;;;1.30;;
52618;SDS011;38513;53.234;6.568;2023-08-21T13:30:28;5.75;;;1.40;;
52618;SDS011;38513;53.234;6.568;2023-08-21T13:32:55;4.93;;;1.27;;
52618;SDS011;38513;53.234;6.568;2023-08-21T13:35:22;4.43;;;1.35;;
52618;SDS011;38513;53.234;6.568;2023-08-21T13:37:48;5.75;;;1.20;;
52618;SDS011;38513;53.234;6.568;2023-08-21T13:40:14;4.60;;;1.35;;
52618;SDS011;38513;53.234;6.568;2023-08-21T13:42:42;5.50;;;1.40;;
52618;SDS011;38513;53.234;6.568;2023-08-21T13:45:09;6.63;;;1.42;;
52618;SDS011;38513;53.234;6.568;2023-08-21T13:47:43;5.97;;;1.47;;
52618;SDS011;38513;53.234;6.568;2023-08-21T13:50:12;5.53;;;1.30;;
52618;SDS011;38513;53.234;6.568;2023-08-21T13:52:42;5.73;;;1.50;;
52618;SDS011;38513;53.234;6.568;2023-08-21T13:55:09;5.17;;;1.30;;
52618;SDS011;38513;53.234;6.568;2023-08-21T13:57:36;5.53;;;1.60;;
52618;SDS011;38513;53.234;6.568;2023-08-21T14:00:03;6.13;;;2.03;;
52618;SDS011;38513;53.234;6.568;2023-08-21T14:02:36;6.60;;;2.60;;
52618;SDS011;38513;53.234;6.568;2023-08-21T14:05:03;5.97;;;1.40;;
52618;SDS011;38513;53.234;6.568;2023-08-21T14:07:30;4.82;;;1.23;;
52618;SDS011;38513;53.234;6.568;2023-08-21T14:09:58;4.53;;;1.25;;
52618;SDS011;38513;53.234;6.568;2023-08-21T14:12:28;5.00;;;1.40;;
52618;SDS011;38513;53.234;6.568;2023-08-21T14:14:56;6.00;;;1.45;;
52618;SDS011;38513;53.234;6.568;2023-08-21T14:17:25;4.63;;;1.23;;
52618;SDS011;38513;53.234;6.568;2023-08-21T14:19:51;5.30;;;1.17;;
52618;SDS011;38513;53.234;6.568;2023-08-21T14:22:18;6.10;;;1.25;;
52618;SDS011;38513;53.234;6.568;2023-08-21T14:24:44;4.70;;;1.10;;
52618;SDS011;38513;53.234;6.568;2023-08-21T14:27:10;6.05;;;1.17;;
52618;SDS011;38513;53.234;6.568;2023-08-21T14:29:39;4.97;;;1.13;;
52618;SDS011;38513;53.234;6.568;2023-08-21T14:32:05;3.87;;;1.00;;
52618;SDS011;38513;53.234;6.568;2023-08-21T14:34:32;4.20;;;1.35;;
52618;SDS011;38513;53.234;6.568;2023-08-21T14:37:00;4.20;;;1.00;;
52618;SDS011;38513;53.234;6.568;2023-08-21T14:39:29;5.82;;;1.40;;
52618;SDS011;38513;53.234;6.568;2023-08-21T14:41:56;5.05;;;1.38;;
52618;SDS011;38513;53.234;6.568;2023-08-21T14:44:22;6.78;;;1.30;;
52618;SDS011;38513;53.234;6.568;2023-08-21T14:46:48;5.30;;;1.25;;
52618;SDS011;38513;53.234;6.568;2023-08-21T14:49:15;3.55;;;0.90;;
52618;SDS011;38513;53.234;6.568;2023-08-21T14:51:41;4.85;;;1.10;;
52618;SDS011;38513;53.234;6.568;2023-08-21T14:54:07;5.07;;;1.40;;
52618;SDS011;38513;53.234;6.568;2023-08-21T14:56:34;5.65;;;1.15;;
52618;SDS011;38513;53.234;6.568;2023-08-21T14:59:00;7.22;;;1.90;;
52618;SDS011;38513;53.234;6.568;2023-08-21T15:01:26;7.78;;;1.88;;
52618;SDS011;38513;53.234;6.568;2023-08-21T15:03:52;11.00;;;1.90;;